createdAt,value
2023-06-24T00:00:08.219Z,18.70
2023-06-24T00:02:39.748Z,18.70
2023-06-24T00:05:10.361Z,18.70
2023-06-24T00:07:45.138Z,18.70
2023-06-24T00:10:14.491Z,18.60
2023-06-24T00:12:43.380Z,18.70
2023-06-24T00:15:12.147Z,18.60
2023-06-24T00:17:43.175Z,18.60
2023-06-24T00:20:15.458Z,18.70
2023-06-24T00:22:46.002Z,18.60
2023-06-24T00:25:14.572Z,18.60
2023-06-24T00:27:43.430Z,18.60
2023-06-24T00:30:12.823Z,18.60
2023-06-24T00:32:42.797Z,18.60
2023-06-24T00:35:13.274Z,18.60
2023-06-24T00:37:43.072Z,18.60
2023-06-24T00:40:16.111Z,18.60
2023-06-24T00:42:45.221Z,18.60
2023-06-24T00:45:13.854Z,18.60
2023-06-24T00:47:43.702Z,18.60
2023-06-24T00:50:13.827Z,18.70
2023-06-24T00:52:44.065Z,18.60
2023-06-24T00:55:14.286Z,18.60
2023-06-24T00:57:43.628Z,18.60
2023-06-24T01:00:15.785Z,18.60
2023-06-24T01:02:45.877Z,18.60
2023-06-24T01:05:15.428Z,18.60
2023-06-24T01:07:45.157Z,18.60
2023-06-24T01:10:15.542Z,18.60
2023-06-24T01:12:45.301Z,18.60
2023-06-24T01:15:14.302Z,18.60
2023-06-24T01:17:52.175Z,18.60
2023-06-24T01:20:26.269Z,18.60
2023-06-24T01:23:30.121Z,18.50
2023-06-24T01:26:15.552Z,18.60
2023-06-24T01:29:07.973Z,18.60
2023-06-24T01:31:43.212Z,18.50
2023-06-24T01:34:20.306Z,18.60
2023-06-24T01:36:55.855Z,18.60
2023-06-24T01:39:26.423Z,18.60
2023-06-24T01:42:01.199Z,18.50
2023-06-24T01:44:31.555Z,18.50
2023-06-24T01:47:03.299Z,18.60
2023-06-24T01:49:34.594Z,18.60
2023-06-24T01:52:05.636Z,18.50
2023-06-24T01:54:38.120Z,18.50
2023-06-24T01:57:07.975Z,18.50
2023-06-24T01:59:37.895Z,18.50
2023-06-24T02:02:09.293Z,18.50
2023-06-24T02:04:38.418Z,18.50
2023-06-24T02:07:08.012Z,18.50
2023-06-24T02:09:41.562Z,18.50
2023-06-24T02:12:11.748Z,18.50
2023-06-24T02:14:41.651Z,18.50
2023-06-24T02:17:13.499Z,18.50
2023-06-24T02:19:42.733Z,18.50
2023-06-24T02:22:11.688Z,18.50
2023-06-24T02:24:40.888Z,18.50
2023-06-24T02:27:10.383Z,18.40
2023-06-24T02:29:39.558Z,18.50
2023-06-24T02:32:08.872Z,18.40
2023-06-24T02:34:38.724Z,18.40
2023-06-24T02:37:07.575Z,18.40
2023-06-24T02:39:36.444Z,18.50
2023-06-24T02:42:05.379Z,18.40
2023-06-24T02:44:34.650Z,18.40
2023-06-24T02:47:03.420Z,18.40
2023-06-24T02:49:33.262Z,18.40
2023-06-24T02:52:03.061Z,18.40
2023-06-24T02:54:32.766Z,18.40
2023-06-24T02:57:21.411Z,18.40
2023-06-24T03:00:14.450Z,18.40
2023-06-24T03:03:07.757Z,18.40
2023-06-24T03:05:38.586Z,18.40
2023-06-24T03:08:10.231Z,18.40
2023-06-24T03:10:39.391Z,18.40
2023-06-24T03:13:12.076Z,18.40
2023-06-24T03:15:46.356Z,18.40
2023-06-24T03:18:15.547Z,18.40
2023-06-24T03:20:44.916Z,18.40
2023-06-24T03:23:19.365Z,18.40
2023-06-24T03:25:47.700Z,18.40
2023-06-24T03:28:17.598Z,18.40
2023-06-24T03:30:55.028Z,18.40
2023-06-24T03:33:23.368Z,18.40
2023-06-24T03:35:51.941Z,18.40
2023-06-24T03:38:26.293Z,18.40
2023-06-24T03:40:54.622Z,18.40
2023-06-24T03:43:23.124Z,18.40
2023-06-24T03:45:52.117Z,18.40
2023-06-24T03:48:21.844Z,18.40
2023-06-24T03:50:50.195Z,18.40
2023-06-24T03:53:18.497Z,18.40
2023-06-24T03:55:48.296Z,18.40
2023-06-24T03:58:18.048Z,18.40
2023-06-24T04:00:47.323Z,18.40
2023-06-24T04:03:16.086Z,18.40
2023-06-24T04:05:44.589Z,18.40
2023-06-24T04:08:12.945Z,18.40
2023-06-24T04:10:44.428Z,18.40
2023-06-24T04:13:15.528Z,18.40
2023-06-24T04:15:44.040Z,18.40
2023-06-24T04:18:12.976Z,18.40
2023-06-24T04:20:41.301Z,18.40
2023-06-24T04:23:11.864Z,18.40
2023-06-24T04:25:40.177Z,18.40
2023-06-24T04:28:08.713Z,18.40
2023-06-24T04:30:39.595Z,18.40
2023-06-24T04:33:09.762Z,18.40
2023-06-24T04:35:38.514Z,18.40
2023-06-24T04:38:07.422Z,18.40
2023-06-24T04:40:35.826Z,18.40
2023-06-24T04:43:04.156Z,18.40
2023-06-24T04:45:32.624Z,18.40
2023-06-24T04:48:02.392Z,18.40
2023-06-24T04:50:31.047Z,18.40
2023-06-24T04:52:59.437Z,18.40
2023-06-24T04:55:27.745Z,18.40
2023-06-24T04:57:56.001Z,18.40
2023-06-24T05:00:25.416Z,18.40
2023-06-24T05:02:54.296Z,18.40
2023-06-24T05:05:24.419Z,18.30
2023-06-24T05:07:52.837Z,18.40
2023-06-24T05:10:21.178Z,18.40
2023-06-24T05:12:49.442Z,18.40
2023-06-24T05:15:18.059Z,18.40
2023-06-24T05:17:46.479Z,18.40
2023-06-24T05:20:14.835Z,18.40
2023-06-24T05:22:44.725Z,18.40
2023-06-24T05:25:13.114Z,18.40
2023-06-24T05:27:41.401Z,18.40
2023-06-24T05:30:10.692Z,18.40
2023-06-24T05:32:38.973Z,18.40
2023-06-24T05:35:08.421Z,18.40
2023-06-24T05:37:36.846Z,18.40
2023-06-24T05:40:08.643Z,18.40
2023-06-24T05:42:36.994Z,18.40
2023-06-24T05:45:05.949Z,18.40
2023-06-24T05:47:34.249Z,18.40
2023-06-24T05:50:02.784Z,18.40
2023-06-24T05:52:31.116Z,18.40
2023-06-24T05:54:59.404Z,18.40
2023-06-24T05:57:29.182Z,18.40
2023-06-24T05:59:57.466Z,18.40
2023-06-24T06:02:25.869Z,18.40
2023-06-24T06:04:54.165Z,18.40
2023-06-24T06:07:22.469Z,18.40
2023-06-24T06:09:50.821Z,18.40
2023-06-24T06:12:19.089Z,18.40
2023-06-24T06:14:48.718Z,18.40
2023-06-24T06:17:17.194Z,18.40
2023-06-24T06:19:48.404Z,18.40
2023-06-24T06:22:19.139Z,18.40
2023-06-24T06:24:47.424Z,18.40
2023-06-24T06:27:16.038Z,18.40
2023-06-24T06:29:44.376Z,18.50
2023-06-24T06:32:14.052Z,18.40
2023-06-24T06:34:43.400Z,18.50
2023-06-24T06:37:11.784Z,18.50
2023-06-24T06:39:40.094Z,18.50
2023-06-24T06:42:08.992Z,18.60
2023-06-24T06:44:37.342Z,18.50
2023-06-24T06:47:06.056Z,18.50
2023-06-24T06:49:35.841Z,18.50
2023-06-24T06:52:04.312Z,18.50
2023-06-24T06:54:32.625Z,18.50
2023-06-24T06:57:03.230Z,18.60
2023-06-24T06:59:31.484Z,18.60
2023-06-24T07:01:59.894Z,18.60
2023-06-24T07:04:28.270Z,18.60
2023-06-24T07:06:57.987Z,18.60
2023-06-24T07:09:26.331Z,18.60
2023-06-24T07:11:54.602Z,18.60
2023-06-24T07:14:22.890Z,18.70
2023-06-24T07:16:51.238Z,18.70
2023-06-24T07:19:20.152Z,18.70
2023-06-24T07:21:48.411Z,18.70
2023-06-24T07:24:18.218Z,18.70
2023-06-24T07:26:46.775Z,18.70
2023-06-24T07:29:15.112Z,18.60
2023-06-24T07:31:44.037Z,18.60
2023-06-24T07:34:12.366Z,18.70
2023-06-24T07:39:09.272Z,18.70
2023-06-24T07:41:39.106Z,18.70
2023-06-24T07:44:07.474Z,18.70
2023-06-24T07:46:35.899Z,18.70
2023-06-24T07:49:04.224Z,18.80
2023-06-24T07:51:32.587Z,18.80
2023-06-24T07:54:00.923Z,18.70
2023-06-24T07:56:29.256Z,18.70
2023-06-24T07:58:59.046Z,18.70
2023-06-24T08:01:28.898Z,18.70
2023-06-24T08:03:57.146Z,18.80
2023-06-24T08:06:25.520Z,18.70
2023-06-24T08:08:54.104Z,18.70
2023-06-24T08:11:22.820Z,18.70
2023-06-24T08:13:51.081Z,18.80
2023-06-24T08:16:21.581Z,18.70
2023-06-24T08:18:50.264Z,18.70
2023-06-24T08:21:18.627Z,18.80
2023-06-24T08:23:47.538Z,18.80
2023-06-24T08:26:17.929Z,18.80
2023-06-24T08:28:47.664Z,18.80
2023-06-24T08:31:16.480Z,18.80
2023-06-24T08:33:47.455Z,18.80
2023-06-24T08:36:16.403Z,18.80
2023-06-24T08:38:44.667Z,18.80
2023-06-24T08:41:12.982Z,18.80
2023-06-24T08:43:41.738Z,18.80
2023-06-24T08:46:10.608Z,18.80
2023-06-24T08:48:44.683Z,18.80
2023-06-24T08:51:20.260Z,18.80
2023-06-24T08:53:50.544Z,18.80
2023-06-24T08:56:19.265Z,18.80
2023-06-24T08:58:47.629Z,18.80
2023-06-24T09:01:16.211Z,18.80
2023-06-24T09:03:44.698Z,18.80
2023-06-24T09:06:14.438Z,18.80
2023-06-24T09:08:42.802Z,18.80
2023-06-24T09:11:11.532Z,18.80
2023-06-24T09:13:39.888Z,18.80
2023-06-24T09:16:16.135Z,18.80
2023-06-24T09:18:49.419Z,18.80
2023-06-24T09:21:24.946Z,18.80
2023-06-24T09:23:56.742Z,18.80
2023-06-24T09:26:25.410Z,18.80
2023-06-24T09:28:53.973Z,18.80
2023-06-24T09:31:24.462Z,18.80
2023-06-24T09:33:53.024Z,19.00
2023-06-24T09:36:22.796Z,18.70
2023-06-24T09:38:51.179Z,18.80
2023-06-24T09:41:19.832Z,18.70
2023-06-24T09:43:48.628Z,18.70
2023-06-24T09:46:18.121Z,18.80
2023-06-24T09:48:49.530Z,18.80
2023-06-24T09:51:19.971Z,18.80
2023-06-24T09:53:49.921Z,18.80
2023-06-24T09:56:19.444Z,18.80
2023-06-24T09:58:49.100Z,18.80
2023-06-24T10:01:18.914Z,18.80
2023-06-24T10:03:47.599Z,18.80
2023-06-24T10:06:16.150Z,18.70
2023-06-24T10:08:44.928Z,18.70
2023-06-24T10:11:14.724Z,18.70
2023-06-24T10:13:43.002Z,18.80
2023-06-24T10:16:11.447Z,18.80
2023-06-24T10:18:42.509Z,18.80
2023-06-24T10:21:11.705Z,18.80
2023-06-24T10:23:44.771Z,18.80
2023-06-24T10:26:26.190Z,18.80
2023-06-24T10:29:15.544Z,18.80
2023-06-24T10:31:56.561Z,18.90
2023-06-24T10:34:36.536Z,18.90
2023-06-24T10:37:06.374Z,18.90
2023-06-24T10:39:42.449Z,18.80
2023-06-24T10:42:38.617Z,18.80
2023-06-24T10:45:21.345Z,18.80
2023-06-24T10:47:51.545Z,18.80
2023-06-24T10:50:24.996Z,18.80
2023-06-24T10:52:57.040Z,18.80
2023-06-24T10:55:26.913Z,18.80
2023-06-24T10:57:56.822Z,18.80
2023-06-24T11:00:25.184Z,18.80
2023-06-24T11:02:53.886Z,18.80
2023-06-24T11:05:22.248Z,18.80
2023-06-24T11:07:51.428Z,18.80
2023-06-24T11:10:19.817Z,18.80
2023-06-24T11:12:48.694Z,18.80
2023-06-24T11:15:20.270Z,18.90
2023-06-24T11:17:52.700Z,18.80
2023-06-24T11:20:21.104Z,18.80
2023-06-24T11:22:49.450Z,18.90
2023-06-24T11:25:18.867Z,18.80
2023-06-24T11:27:47.771Z,18.80
2023-06-24T14:07:39.783Z,19.00
2023-06-24T14:10:09.095Z,19.00
2023-06-24T14:12:38.682Z,18.80
2023-06-24T14:15:07.926Z,18.80
2023-06-24T14:17:36.252Z,18.80
2023-06-24T14:20:07.190Z,18.80
2023-06-24T14:22:35.662Z,18.90
2023-06-24T14:25:03.900Z,18.80
2023-06-24T14:27:32.206Z,18.90
2023-06-24T14:30:00.559Z,18.90
2023-06-24T14:32:29.012Z,18.90
2023-06-24T14:34:57.603Z,18.90
2023-06-24T14:37:27.314Z,18.90
2023-06-24T14:39:55.961Z,18.90
2023-06-24T14:42:24.181Z,18.80
2023-06-24T14:44:52.669Z,18.80
2023-06-24T14:47:21.051Z,18.80
2023-06-24T14:49:49.438Z,18.90
2023-06-24T14:52:17.768Z,18.90
2023-06-24T14:54:49.628Z,18.80
2023-06-24T14:57:18.156Z,18.80
2023-06-24T14:59:46.433Z,18.80
2023-06-24T15:02:14.754Z,18.90
2023-06-24T15:04:44.173Z,18.90
2023-06-24T15:07:12.886Z,18.90
2023-06-24T15:09:41.363Z,18.90
2023-06-24T15:12:11.607Z,18.90
2023-06-24T15:14:40.039Z,18.90
2023-06-24T15:17:08.332Z,18.90
2023-06-24T15:19:36.663Z,18.90
2023-06-24T15:22:05.531Z,18.80
2023-06-24T15:24:33.818Z,18.80
2023-06-24T15:27:02.393Z,18.80
2023-06-24T15:29:34.254Z,18.80
2023-06-24T15:32:03.695Z,18.80
2023-06-24T15:34:32.230Z,18.80
2023-06-24T15:37:00.458Z,18.80
2023-06-24T15:39:28.852Z,18.80
2023-06-24T15:41:57.223Z,18.80
2023-06-24T15:44:25.598Z,18.80
2023-06-24T15:46:55.411Z,18.80
2023-06-24T15:49:24.078Z,18.80
2023-06-24T15:51:52.608Z,18.80
2023-06-24T15:54:20.995Z,18.90
2023-06-24T15:56:49.328Z,18.90
2023-06-24T15:59:17.652Z,18.90
2023-06-24T16:01:46.036Z,18.90
2023-06-24T16:04:15.838Z,18.80
2023-06-24T16:06:44.756Z,18.80
2023-06-24T16:09:13.802Z,18.90
2023-06-24T16:11:42.084Z,18.90
2023-06-24T16:14:10.486Z,18.80
2023-06-24T16:16:38.757Z,18.80
2023-06-24T16:19:07.100Z,18.80
2023-06-24T16:21:36.919Z,18.90
2023-06-24T16:24:05.411Z,18.80
2023-06-24T16:26:40.254Z,18.80
2023-06-24T16:29:19.973Z,18.90
2023-06-24T16:31:48.408Z,18.80
2023-06-24T16:36:49.602Z,18.80
2023-06-24T16:39:19.723Z,18.90
2023-06-24T16:41:48.144Z,18.90
2023-06-24T16:44:16.558Z,18.80
2023-06-24T16:46:44.880Z,18.90
2023-06-24T16:49:13.320Z,18.90
2023-06-24T16:51:41.831Z,18.80
2023-06-24T16:54:11.883Z,18.90
2023-06-24T16:56:40.661Z,18.80
2023-06-24T16:59:08.890Z,18.80
2023-06-24T17:01:37.290Z,18.90
2023-06-24T17:04:05.816Z,18.80
2023-06-24T17:06:34.317Z,18.80
2023-06-24T17:09:02.877Z,18.80
2023-06-24T17:11:32.601Z,18.80
2023-06-24T17:14:01.005Z,18.80
2023-06-24T17:16:29.285Z,18.90
2023-06-24T17:18:57.753Z,18.80
2023-06-24T17:21:26.137Z,18.90
2023-06-24T17:24:02.028Z,18.80
2023-06-24T17:26:36.100Z,18.90
2023-06-24T17:29:08.628Z,18.90
2023-06-24T17:31:42.056Z,19.00
2023-06-24T17:34:10.513Z,19.00
2023-06-24T17:36:38.872Z,19.00
2023-06-24T17:39:07.104Z,19.00
2023-06-24T17:41:36.992Z,19.00
2023-06-24T17:44:05.339Z,19.00
2023-06-24T17:46:33.945Z,19.00
2023-06-24T17:49:02.292Z,19.00
2023-06-24T17:51:34.132Z,19.00
2023-06-24T17:54:02.500Z,19.00
2023-06-24T17:56:30.872Z,19.00
2023-06-24T17:59:01.042Z,19.00
2023-06-24T18:01:30.527Z,19.00
2023-06-24T18:03:59.481Z,19.00
2023-06-24T18:06:28.260Z,19.10
2023-06-24T18:08:56.651Z,19.00
2023-06-24T18:11:24.932Z,19.00
2023-06-24T18:13:53.316Z,19.00
2023-06-24T18:16:23.084Z,19.00
2023-06-24T18:18:51.501Z,19.00
2023-06-24T18:21:19.879Z,19.00
2023-06-24T18:23:48.203Z,19.00
2023-06-24T18:26:17.376Z,19.00
2023-06-24T18:28:45.920Z,19.00
2023-06-24T18:31:14.310Z,19.00
2023-06-24T18:33:44.037Z,19.00
2023-06-24T18:36:13.746Z,19.00
2023-06-24T18:38:42.238Z,19.00
2023-06-24T18:41:11.093Z,19.00
2023-06-24T18:43:39.495Z,19.00
2023-06-24T18:46:07.868Z,19.00
2023-06-24T18:48:36.267Z,19.00
2023-06-24T18:51:06.100Z,19.00
2023-06-24T18:53:34.422Z,18.90
2023-06-24T18:56:05.258Z,19.00
2023-06-24T18:58:35.298Z,18.90
2023-06-24T19:01:05.809Z,19.00
2023-06-24T19:03:34.165Z,19.00
2023-06-24T19:06:03.293Z,19.00
2023-06-24T19:08:33.177Z,19.00
2023-06-24T19:11:01.556Z,18.90
2023-06-24T19:13:29.805Z,18.90
2023-06-24T19:15:58.212Z,19.00
2023-06-24T19:18:26.480Z,19.00
2023-06-24T19:20:54.834Z,19.00
2023-06-24T19:23:23.058Z,19.00
2023-06-24T19:25:52.885Z,19.00
2023-06-24T19:28:21.098Z,19.00
2023-06-24T19:30:49.647Z,19.00
2023-06-24T19:33:18.228Z,19.00
2023-06-24T19:35:46.485Z,19.00
2023-06-24T19:38:14.811Z,19.00
2023-06-24T19:40:43.116Z,19.00
2023-06-24T19:43:12.769Z,19.00
2023-06-24T19:45:41.076Z,19.00
2023-06-24T19:48:09.518Z,19.00
2023-06-24T19:50:38.070Z,19.00
2023-06-24T19:53:06.555Z,19.00
2023-06-24T19:55:34.855Z,18.90
2023-06-24T19:58:03.207Z,19.00
2023-06-24T20:00:33.077Z,19.00
2023-06-24T20:03:03.752Z,19.00
2023-06-24T20:05:33.027Z,18.90
2023-06-24T20:08:01.977Z,19.00
2023-06-24T20:10:30.209Z,18.90
2023-06-24T20:12:58.612Z,18.90
2023-06-24T20:15:26.915Z,19.00
2023-06-24T20:17:56.639Z,19.00
2023-06-24T20:20:24.981Z,19.00
2023-06-24T20:22:53.264Z,18.90
2023-06-24T20:25:21.867Z,19.00
2023-06-24T20:27:50.508Z,19.00
2023-06-24T20:30:18.888Z,19.10
2023-06-24T20:32:47.154Z,19.10
2023-06-24T20:35:17.567Z,19.10
2023-06-24T20:37:46.103Z,19.10
2023-06-24T20:40:14.645Z,19.10
2023-06-24T20:42:42.886Z,19.00
2023-06-24T20:45:12.345Z,19.10
2023-06-24T20:47:41.461Z,19.10
2023-06-24T20:50:11.909Z,19.10
2023-06-24T20:52:42.346Z,19.10
2023-06-24T20:55:10.645Z,19.10
2023-06-24T20:57:39.318Z,19.10
2023-06-24T21:00:09.111Z,19.20
2023-06-24T21:02:37.564Z,19.10
2023-06-24T21:05:06.180Z,19.20
2023-06-24T21:07:34.518Z,19.20
2023-06-24T21:10:04.526Z,19.10
2023-06-24T21:12:36.535Z,19.10
2023-06-24T21:15:10.608Z,19.00
2023-06-24T21:17:40.517Z,19.00
2023-06-24T21:20:10.205Z,19.00
2023-06-24T21:22:38.525Z,19.00
2023-06-24T21:25:09.409Z,18.90
2023-06-24T21:27:37.700Z,18.90
2023-06-24T21:30:07.184Z,18.90
2023-06-24T21:32:35.492Z,18.90
2023-06-24T21:35:04.200Z,18.90
2023-06-24T21:37:32.425Z,18.90
2023-06-24T21:40:02.006Z,18.90
2023-06-24T21:42:31.642Z,18.80
2023-06-24T21:44:59.962Z,18.90
2023-06-24T21:47:28.366Z,18.90
2023-06-24T21:49:56.787Z,18.80
2023-06-24T21:52:25.225Z,18.80
2023-06-24T21:54:53.971Z,18.80
2023-06-24T21:57:22.236Z,18.80
2023-06-24T21:59:51.952Z,18.80
2023-06-24T22:02:21.115Z,18.80
2023-06-24T22:04:49.492Z,18.70
2023-06-24T22:07:18.248Z,18.70
2023-06-24T22:09:46.673Z,18.70
2023-06-24T22:12:15.049Z,18.70
2023-06-24T22:14:44.048Z,18.70
2023-06-24T22:17:14.410Z,18.70
2023-06-24T22:19:42.928Z,18.70
2023-06-24T22:22:11.132Z,18.70
2023-06-24T22:24:40.320Z,18.70
2023-06-24T22:27:08.618Z,18.70
2023-06-24T22:29:36.971Z,18.60
2023-06-24T22:32:06.513Z,18.60
2023-06-24T22:34:36.287Z,18.60
2023-06-24T22:37:04.945Z,18.60
2023-06-24T22:39:33.172Z,18.60
2023-06-24T22:42:01.508Z,18.60
2023-06-24T22:44:29.764Z,18.60
2023-06-24T22:46:58.988Z,18.60
2023-06-24T22:49:29.618Z,18.60
2023-06-24T22:51:59.341Z,18.60
2023-06-24T22:54:27.720Z,18.60
2023-06-24T22:56:55.977Z,18.50
2023-06-24T22:59:24.356Z,18.60
2023-06-24T23:01:52.968Z,18.60
2023-06-24T23:04:21.798Z,18.50
2023-06-24T23:06:50.772Z,18.50
2023-06-24T23:09:21.088Z,18.50
2023-06-24T23:11:52.719Z,18.50
2023-06-24T23:14:21.782Z,18.50
2023-06-24T23:16:51.814Z,18.50
2023-06-24T23:19:20.606Z,18.40
2023-06-24T23:21:49.560Z,18.50
2023-06-24T23:24:22.798Z,18.50
2023-06-24T23:26:52.506Z,18.40
2023-06-24T23:29:23.478Z,18.40
2023-06-24T23:31:52.208Z,18.40
2023-06-24T23:34:21.298Z,18.40
2023-06-24T23:36:50.267Z,18.40
2023-06-24T23:39:20.565Z,18.40
2023-06-24T23:41:49.518Z,18.40
2023-06-24T23:44:18.295Z,18.40
2023-06-24T23:46:46.558Z,18.40
2023-06-24T23:49:14.976Z,18.40
2023-06-24T23:51:43.230Z,18.40
2023-06-24T23:54:11.692Z,18.40
2023-06-24T23:56:41.922Z,18.40
2023-06-24T23:59:10.278Z,18.40
